createdAt,value
2022-10-21T00:01:41.890Z,11.23
2022-10-21T00:04:08.662Z,9.40
2022-10-21T00:06:35.353Z,10.77
2022-10-21T00:09:02.128Z,7.43
2022-10-21T00:11:28.841Z,14.40
2022-10-21T00:13:55.504Z,11.13
2022-10-21T00:16:22.217Z,11.70
2022-10-21T00:18:49.623Z,7.13
2022-10-21T00:21:20.906Z,10.30
2022-10-21T00:23:48.386Z,11.00
2022-10-21T00:26:16.885Z,10.05
2022-10-21T00:28:43.630Z,15.43
2022-10-21T00:31:14.201Z,8.18
2022-10-21T00:33:41.603Z,5.20
2022-10-21T00:36:14.704Z,6.30
2022-10-21T00:38:43.581Z,10.65
2022-10-21T00:41:10.805Z,10.00
2022-10-21T00:44:04.791Z,9.52
2022-10-21T00:46:34.981Z,10.57
2022-10-21T00:49:06.539Z,7.72
2022-10-21T00:54:02.119Z,8.27
2022-10-21T00:56:31.400Z,6.18
2022-10-21T00:59:00.594Z,7.72
2022-10-21T01:01:27.760Z,8.68
2022-10-21T01:03:54.653Z,13.40
2022-10-21T01:06:24.366Z,12.73
2022-10-21T01:08:54.442Z,9.60
2022-10-21T01:11:23.022Z,12.93
2022-10-21T01:13:59.077Z,8.60
2022-10-21T01:16:48.010Z,8.90
2022-10-21T01:19:43.970Z,12.77
2022-10-21T01:22:49.237Z,9.52
2022-10-21T01:25:34.573Z,8.35
2022-10-21T01:28:01.284Z,10.82
2022-10-21T01:30:36.924Z,8.77
2022-10-21T01:33:47.167Z,10.32
2022-10-21T01:36:30.761Z,7.30
2022-10-21T01:39:07.345Z,10.80
2022-10-21T01:41:41.229Z,7.95
2022-10-21T01:44:21.645Z,13.15
2022-10-21T01:47:00.419Z,7.75
2022-10-21T01:49:41.195Z,7.20
2022-10-21T01:52:08.161Z,7.33
2022-10-21T01:54:48.574Z,10.27
2022-10-21T01:57:18.492Z,10.13
2022-10-21T01:59:47.177Z,8.13
2022-10-21T02:02:16.144Z,9.60
2022-10-21T02:04:45.354Z,8.20
2022-10-21T02:07:12.056Z,11.00
2022-10-21T02:09:38.767Z,12.55
2022-10-21T02:12:06.411Z,12.73
2022-10-21T02:14:38.786Z,7.10
2022-10-21T02:17:06.802Z,13.85
2022-10-21T02:19:33.567Z,11.27
2022-10-21T02:22:03.363Z,9.55
2022-10-21T02:24:52.262Z,12.52
2022-10-21T02:27:19.950Z,7.80
2022-10-21T02:29:49.580Z,8.93
2022-10-21T02:32:57.024Z,8.70
2022-10-21T02:35:45.573Z,9.90
2022-10-21T02:38:28.905Z,10.45
2022-10-21T02:41:04.379Z,9.27
2022-10-21T02:43:35.668Z,13.23
2022-10-21T02:46:08.408Z,11.68
2022-10-21T02:48:36.852Z,15.43
2022-10-21T02:51:05.985Z,10.45
2022-10-21T02:53:33.325Z,18.80
2022-10-21T02:56:00.050Z,12.30
2022-10-21T02:58:26.810Z,12.70
2022-10-21T03:00:53.682Z,11.38
2022-10-21T03:03:20.805Z,10.25
2022-10-21T03:05:47.854Z,14.32
2022-10-21T03:08:14.619Z,11.23
2022-10-21T03:10:41.390Z,12.43
2022-10-21T03:13:08.188Z,8.85
2022-10-21T03:15:34.950Z,9.23
2022-10-21T03:18:01.679Z,9.63
2022-10-21T03:20:28.394Z,7.93
2022-10-21T03:22:55.087Z,9.88
2022-10-21T03:25:21.750Z,13.43
2022-10-21T03:27:50.695Z,7.47
2022-10-21T03:30:17.571Z,15.07
2022-10-21T03:32:44.261Z,8.93
2022-10-21T03:35:11.044Z,13.10
2022-10-21T03:37:37.861Z,10.70
2022-10-21T03:40:08.614Z,10.70
2022-10-21T03:42:38.361Z,13.50
2022-10-21T03:45:05.700Z,13.85
2022-10-21T03:47:32.410Z,11.80
2022-10-21T03:49:59.136Z,19.52
2022-10-21T03:52:25.863Z,10.07
2022-10-21T03:54:52.569Z,11.82
2022-10-21T03:57:19.273Z,9.90
2022-10-21T03:59:45.937Z,8.20
2022-10-21T04:02:12.699Z,10.60
2022-10-21T04:04:39.400Z,10.75
2022-10-21T04:07:06.098Z,13.73
2022-10-21T04:09:32.791Z,9.43
2022-10-21T04:11:59.495Z,11.30
2022-10-21T04:14:26.241Z,11.00
2022-10-21T04:17:02.054Z,12.13
2022-10-21T04:19:29.293Z,13.32
2022-10-21T04:21:55.976Z,6.72
2022-10-21T04:24:22.648Z,11.85
2022-10-21T04:26:49.370Z,8.50
2022-10-21T04:29:16.092Z,11.50
2022-10-21T04:31:42.818Z,11.73
2022-10-21T04:34:09.580Z,17.30
2022-10-21T04:36:36.351Z,11.73
2022-10-21T04:39:04.197Z,9.80
2022-10-21T04:41:30.922Z,12.10
2022-10-21T04:43:57.619Z,8.45
2022-10-21T04:46:24.365Z,11.05
2022-10-21T04:48:51.173Z,13.95
2022-10-21T04:51:17.949Z,8.48
2022-10-21T04:53:44.672Z,12.85
2022-10-21T04:56:11.753Z,12.10
2022-10-21T04:58:38.732Z,14.75
2022-10-21T05:01:05.692Z,11.45
2022-10-21T05:03:32.426Z,12.45
2022-10-21T05:05:59.132Z,11.35
2022-10-21T05:08:25.810Z,10.52
2022-10-21T05:11:00.440Z,12.65
2022-10-21T05:13:28.228Z,9.48
2022-10-21T05:16:01.980Z,15.25
2022-10-21T05:18:29.306Z,13.60
2022-10-21T05:20:56.797Z,10.48
2022-10-21T05:23:24.678Z,10.95
2022-10-21T05:25:51.901Z,10.55
2022-10-21T05:28:19.741Z,12.88
2022-10-21T05:30:46.683Z,13.13
2022-10-21T05:33:14.066Z,13.43
2022-10-21T05:35:40.840Z,9.93
2022-10-21T05:38:07.579Z,14.48
2022-10-21T05:40:34.405Z,6.72
2022-10-21T05:43:01.580Z,11.45
2022-10-21T05:45:28.314Z,10.25
2022-10-21T05:47:55.063Z,13.02
2022-10-21T05:50:21.925Z,6.10
2022-10-21T05:52:48.631Z,11.68
2022-10-21T05:55:15.367Z,10.82
2022-10-21T05:57:42.181Z,10.82
2022-10-21T06:00:09.677Z,11.82
2022-10-21T06:02:36.711Z,16.45
2022-10-21T06:05:03.877Z,10.85
2022-10-21T06:07:30.717Z,12.27
2022-10-21T06:09:57.399Z,8.30
2022-10-21T06:12:24.103Z,5.30
2022-10-21T06:14:50.803Z,6.05
2022-10-21T06:17:17.522Z,14.80
2022-10-21T06:19:47.275Z,23.02
2022-10-21T06:22:16.929Z,11.15
2022-10-21T06:24:43.667Z,13.60
2022-10-21T06:27:10.498Z,11.13
2022-10-21T06:29:37.314Z,9.13
2022-10-21T06:32:04.224Z,6.68
2022-10-21T06:34:31.459Z,8.02
2022-10-21T06:36:58.159Z,9.90
2022-10-21T06:39:24.863Z,10.27
2022-10-21T06:41:51.561Z,6.68
2022-10-21T06:44:38.233Z,4.53
2022-10-21T06:47:04.956Z,6.97
2022-10-21T06:49:31.851Z,7.30
2022-10-21T06:51:58.631Z,9.77
2022-10-21T06:54:25.419Z,6.90
2022-10-21T06:56:52.185Z,4.25
2022-10-21T06:59:18.910Z,7.05
2022-10-21T07:01:59.695Z,6.55
2022-10-21T07:04:27.795Z,6.80
2022-10-21T07:06:54.689Z,4.60
2022-10-21T07:09:21.579Z,3.72
2022-10-21T07:11:48.360Z,7.35
2022-10-21T07:14:15.050Z,3.65
2022-10-21T07:16:42.028Z,5.32
2022-10-21T07:19:10.376Z,2.90
2022-10-21T07:21:39.369Z,7.68
2022-10-21T07:24:08.138Z,5.68
2022-10-21T07:26:36.832Z,5.28
2022-10-21T07:29:05.182Z,4.10
2022-10-21T07:31:36.343Z,6.90
2022-10-21T07:34:06.440Z,7.63
2022-10-21T07:36:37.385Z,8.80
2022-10-21T07:39:10.335Z,6.22
2022-10-21T07:41:44.521Z,6.57
2022-10-21T07:44:12.832Z,4.43
2022-10-21T07:46:43.160Z,6.28
2022-10-21T07:51:40.346Z,6.55
2022-10-21T07:54:08.759Z,7.45
2022-10-21T07:56:39.590Z,5.18
2022-10-21T07:59:11.679Z,9.25
2022-10-21T08:01:44.011Z,15.10
2022-10-21T08:06:40.349Z,13.25
2022-10-21T08:09:07.383Z,6.38
2022-10-21T08:11:34.779Z,5.40
2022-10-21T08:14:03.103Z,4.05
2022-10-21T08:16:29.844Z,4.65
2022-10-21T08:18:58.995Z,5.88
2022-10-21T08:21:25.683Z,3.78
2022-10-21T08:23:52.495Z,3.78
2022-10-21T08:26:19.710Z,3.47
2022-10-21T08:28:46.590Z,5.75
2022-10-21T08:31:16.546Z,8.20
2022-10-21T08:33:44.509Z,5.43
2022-10-21T08:36:16.778Z,3.85
2022-10-21T08:38:44.089Z,7.78
2022-10-21T08:41:35.554Z,3.85
2022-10-21T08:44:07.202Z,8.82
2022-10-21T08:46:38.945Z,4.30
2022-10-21T08:49:25.057Z,5.82
2022-10-21T08:52:05.886Z,4.28
2022-10-21T08:54:59.335Z,4.35
2022-10-21T08:57:26.415Z,2.47
2022-10-21T08:59:53.715Z,2.28
2022-10-21T09:02:43.565Z,3.35
2022-10-21T09:05:52.171Z,6.65
2022-10-21T09:08:30.499Z,2.72
2022-10-21T09:11:04.781Z,2.75
2022-10-21T09:13:42.323Z,3.30
2022-10-21T09:16:27.054Z,3.17
2022-10-21T09:19:24.902Z,4.13
2022-10-21T09:22:33.752Z,4.43
2022-10-21T09:25:16.978Z,3.15
2022-10-21T09:27:55.579Z,2.80
2022-10-21T09:30:23.524Z,2.30
2022-10-21T09:33:01.538Z,1.17
2022-10-21T09:35:37.738Z,2.63
2022-10-21T09:38:27.550Z,7.05
2022-10-21T09:41:01.362Z,2.83
2022-10-21T09:43:28.589Z,2.60
2022-10-21T09:45:56.015Z,1.75
2022-10-21T09:48:39.235Z,2.15
2022-10-21T09:51:19.394Z,1.35
2022-10-21T09:53:54.123Z,2.28
2022-10-21T09:56:28.644Z,1.40
2022-10-21T09:59:08.540Z,2.88
2022-10-21T10:01:36.872Z,3.97
2022-10-21T10:04:12.883Z,3.08
2022-10-21T10:06:44.469Z,1.60
2022-10-21T10:09:31.738Z,2.67
2022-10-21T10:12:05.607Z,3.65
2022-10-21T10:14:33.853Z,1.85
2022-10-21T10:17:21.035Z,3.30
2022-10-21T10:20:08.507Z,2.85
2022-10-21T10:22:37.716Z,4.30
2022-10-21T10:25:24.236Z,4.38
2022-10-21T10:27:59.271Z,0.93
2022-10-21T10:30:42.647Z,2.95
2022-10-21T10:33:22.851Z,3.45
2022-10-21T10:35:55.862Z,1.23
2022-10-21T10:38:42.481Z,1.08
2022-10-21T10:41:12.229Z,4.60
2022-10-21T10:43:54.199Z,3.30
2022-10-21T10:46:32.410Z,2.28
2022-10-21T10:49:24.701Z,4.50
2022-10-21T10:52:04.379Z,1.90
2022-10-21T10:54:31.149Z,0.70
2022-10-21T10:57:02.226Z,2.75
2022-10-21T10:59:49.756Z,1.17
2022-10-21T11:02:25.956Z,3.13
2022-10-21T11:05:26.346Z,3.60
2022-10-21T11:07:55.928Z,2.45
2022-10-21T11:10:41.961Z,1.83
2022-10-21T11:13:20.549Z,1.38
2022-10-21T11:16:05.834Z,2.13
2022-10-21T11:18:49.622Z,1.60
2022-10-21T11:21:25.833Z,1.83
2022-10-21T11:23:58.198Z,3.05
2022-10-21T11:26:45.893Z,5.38
2022-10-21T11:29:38.837Z,2.67
2022-10-21T11:32:12.870Z,5.18
2022-10-21T11:35:07.851Z,4.60
2022-10-21T11:37:54.509Z,6.35
2022-10-21T11:40:21.337Z,4.15
2022-10-21T11:42:51.868Z,6.18
2022-10-21T11:45:33.400Z,5.25
2022-10-21T11:51:14.164Z,9.13
2022-10-21T11:54:04.340Z,2.97
2022-10-21T11:56:50.026Z,3.63
2022-10-21T11:59:47.693Z,4.10
2022-10-21T12:02:25.775Z,1.77
2022-10-21T12:05:31.371Z,5.55
2022-10-21T12:08:09.138Z,2.25
2022-10-21T12:10:40.033Z,2.63
2022-10-21T12:13:29.657Z,2.50
2022-10-21T12:16:00.121Z,3.15
2022-10-21T12:18:29.385Z,3.08
2022-10-21T12:20:58.414Z,2.38
2022-10-21T12:23:29.095Z,1.55
2022-10-21T12:26:22.371Z,7.00
2022-10-21T12:29:01.138Z,4.60
2022-10-21T12:31:39.823Z,5.90
2022-10-21T12:34:10.573Z,3.53
2022-10-21T12:36:38.283Z,1.05
2022-10-21T12:39:12.560Z,4.10
2022-10-21T12:41:40.663Z,1.63
2022-10-21T12:44:21.644Z,1.58
2022-10-21T12:46:54.335Z,2.38
2022-10-21T12:49:33.621Z,2.05
2022-10-21T12:52:03.638Z,2.97
2022-10-21T12:54:58.057Z,0.88
2022-10-21T12:57:35.080Z,2.65
2022-10-21T13:03:05.582Z,2.83
2022-10-21T13:05:38.439Z,0.85
2022-10-21T13:08:27.074Z,3.33
2022-10-21T13:11:05.821Z,2.53
2022-10-21T13:13:37.392Z,1.88
2022-10-21T13:18:55.780Z,4.80
2022-10-21T13:21:30.032Z,3.30
2022-10-21T13:24:06.263Z,2.95
2022-10-21T13:26:33.173Z,3.65
2022-10-21T13:29:05.743Z,3.83
2022-10-21T13:31:32.712Z,3.17
2022-10-21T13:34:00.321Z,3.78
2022-10-21T13:36:39.287Z,2.15
2022-10-21T13:39:21.898Z,2.95
2022-10-21T13:41:58.487Z,2.55
2022-10-21T13:44:32.999Z,4.65
2022-10-21T13:47:28.015Z,1.20
2022-10-21T13:49:57.842Z,2.00
2022-10-21T13:52:29.180Z,4.18
2022-10-21T13:55:01.187Z,2.38
2022-10-21T13:57:32.975Z,3.47
2022-10-21T14:00:18.586Z,26.55
2022-10-21T14:02:50.653Z,6.43
2022-10-21T14:05:26.839Z,3.00
2022-10-21T14:07:53.964Z,7.10
2022-10-21T14:10:21.979Z,2.78
2022-10-21T14:12:49.443Z,5.43
2022-10-21T14:15:23.955Z,4.15
2022-10-21T14:17:55.329Z,3.47
2022-10-21T14:20:35.046Z,4.10
2022-10-21T14:23:08.301Z,3.53
2022-10-21T14:25:35.482Z,3.50
2022-10-21T14:28:04.275Z,2.70
2022-10-21T14:30:33.833Z,2.75
2022-10-21T14:33:03.776Z,3.67
2022-10-21T14:35:31.260Z,3.67
2022-10-21T14:38:01.168Z,2.92
2022-10-21T14:40:37.565Z,3.65
2022-10-21T14:43:32.287Z,4.13
2022-10-21T14:45:59.077Z,3.45
2022-10-21T14:48:31.380Z,2.58
2022-10-21T14:51:22.925Z,1.85
2022-10-21T14:53:59.841Z,3.60
2022-10-21T14:56:33.872Z,1.60
2022-10-21T14:59:05.946Z,2.15
2022-10-21T15:01:32.806Z,1.88
2022-10-21T15:04:00.884Z,4.57
2022-10-21T15:06:31.484Z,1.30
2022-10-21T15:09:10.272Z,2.13
2022-10-21T15:11:43.116Z,2.70
2022-10-21T15:14:12.863Z,2.35
2022-10-21T15:16:52.424Z,3.38
2022-10-21T15:19:23.947Z,3.03
2022-10-21T15:24:35.780Z,3.15
2022-10-21T15:27:03.603Z,6.45
2022-10-21T15:29:43.085Z,4.13
2022-10-21T15:32:12.233Z,4.22
2022-10-21T15:34:38.971Z,2.45
2022-10-21T15:37:07.376Z,2.05
2022-10-21T15:39:34.239Z,1.60
2022-10-21T15:42:02.016Z,2.70
2022-10-21T15:44:30.666Z,2.78
2022-10-21T15:47:00.950Z,3.70
2022-10-21T15:49:32.640Z,10.70
2022-10-21T15:54:26.409Z,5.00
2022-10-21T15:56:54.570Z,3.13
2022-10-21T15:59:27.019Z,2.47
2022-10-21T16:01:54.919Z,3.67
2022-10-21T16:04:22.566Z,5.05
2022-10-21T16:06:50.192Z,4.07
2022-10-21T16:09:28.111Z,2.72
2022-10-21T16:12:00.146Z,3.05
2022-10-21T16:14:30.154Z,3.22
2022-10-21T16:16:58.592Z,4.00
2022-10-21T16:19:25.589Z,6.32
2022-10-21T16:21:52.272Z,4.05
2022-10-21T16:24:19.202Z,5.05
2022-10-21T16:26:49.058Z,4.70
2022-10-21T16:29:21.308Z,5.85
2022-10-21T16:31:48.458Z,5.28
2022-10-21T16:34:15.318Z,3.88
2022-10-21T16:36:42.535Z,4.75
2022-10-21T16:39:18.276Z,5.60
2022-10-21T16:41:45.107Z,7.10
2022-10-21T16:44:11.903Z,8.25
2022-10-21T16:46:53.754Z,2.13
2022-10-21T16:49:23.273Z,2.42
2022-10-21T16:51:52.536Z,5.47
2022-10-21T16:54:20.378Z,5.65
2022-10-21T16:56:47.282Z,6.28
2022-10-21T16:59:14.033Z,7.00
2022-10-21T17:01:41.031Z,6.82
2022-10-21T17:04:07.726Z,5.47
2022-10-21T17:06:34.511Z,4.57
2022-10-21T17:09:01.349Z,5.00
2022-10-21T17:11:33.085Z,3.80
2022-10-21T17:14:01.186Z,5.50
2022-10-21T17:16:28.021Z,2.30
2022-10-21T17:18:54.805Z,2.13
2022-10-21T17:21:27.586Z,6.10
2022-10-21T17:23:55.649Z,2.47
2022-10-21T17:26:22.878Z,4.00
2022-10-21T17:28:50.407Z,1.40
2022-10-21T17:31:19.377Z,4.10
2022-10-21T17:33:47.190Z,4.63
2022-10-21T17:36:14.787Z,3.47
2022-10-21T17:38:42.071Z,7.07
2022-10-21T17:41:10.327Z,3.85
2022-10-21T17:43:37.599Z,3.35
2022-10-21T17:46:05.230Z,6.15
2022-10-21T17:48:32.593Z,2.78
2022-10-21T17:51:01.833Z,8.13
2022-10-21T17:53:29.754Z,2.03
2022-10-21T17:56:02.094Z,7.45
2022-10-21T17:58:29.450Z,5.55
2022-10-21T18:00:57.024Z,4.93
2022-10-21T18:03:25.221Z,7.72
2022-10-21T18:05:52.335Z,4.53
2022-10-21T18:08:19.487Z,2.00
2022-10-21T18:10:55.314Z,5.88
2022-10-21T18:13:23.712Z,4.53
2022-10-21T18:15:51.025Z,5.13
2022-10-21T18:18:18.419Z,4.18
2022-10-21T18:20:45.452Z,5.45
2022-10-21T18:23:12.673Z,3.50
2022-10-21T18:25:40.335Z,2.67
2022-10-21T18:28:07.165Z,5.15
2022-10-21T18:30:35.473Z,4.93
2022-10-21T18:33:02.204Z,5.40
2022-10-21T18:35:29.884Z,2.20
2022-10-21T18:37:57.293Z,2.50
2022-10-21T18:40:24.128Z,7.15
2022-10-21T18:42:50.863Z,6.07
2022-10-21T18:45:17.626Z,6.60
2022-10-21T18:47:50.330Z,3.80
2022-10-21T18:50:17.466Z,5.05
2022-10-21T18:52:44.315Z,6.50
2022-10-21T18:55:11.028Z,5.97
2022-10-21T18:57:38.222Z,3.95
2022-10-21T19:00:06.321Z,6.40
2022-10-21T19:02:33.126Z,5.47
2022-10-21T19:05:02.022Z,7.40
2022-10-21T19:07:29.311Z,6.18
2022-10-21T19:09:56.335Z,2.67
2022-10-21T19:12:23.709Z,5.88
2022-10-21T19:14:50.861Z,3.78
2022-10-21T19:17:19.043Z,4.47
2022-10-21T19:19:45.755Z,3.80
2022-10-21T19:22:14.602Z,8.10
2022-10-21T19:24:41.343Z,6.18
2022-10-21T19:27:08.071Z,9.50
2022-10-21T19:29:34.993Z,13.05
2022-10-21T19:32:02.203Z,15.82
2022-10-21T19:34:28.938Z,15.15
2022-10-21T19:36:55.755Z,16.35
2022-10-21T19:39:22.456Z,12.98
2022-10-21T19:41:49.171Z,13.48
2022-10-21T19:44:15.876Z,13.80
2022-10-21T19:46:42.725Z,11.35
2022-10-21T19:49:11.602Z,13.13
2022-10-21T19:51:38.776Z,11.18
2022-10-21T19:54:07.240Z,6.82
2022-10-21T19:56:34.721Z,13.68
2022-10-21T19:59:02.719Z,9.93
2022-10-21T20:01:30.376Z,7.72
2022-10-21T20:03:57.341Z,5.10
2022-10-21T20:06:30.041Z,4.15
2022-10-21T20:08:59.507Z,3.90
2022-10-21T20:11:27.649Z,6.75
2022-10-21T20:13:55.266Z,7.10
2022-10-21T20:16:31.309Z,5.65
2022-10-21T20:18:59.856Z,7.32
2022-10-21T20:21:27.286Z,8.48
2022-10-21T20:23:54.219Z,6.63
2022-10-21T20:26:21.147Z,6.47
2022-10-21T20:28:47.977Z,7.38
2022-10-21T20:31:15.915Z,8.25
2022-10-21T20:33:50.410Z,4.43
2022-10-21T20:36:26.811Z,5.70
2022-10-21T20:38:56.029Z,5.40
2022-10-21T20:41:28.318Z,4.47
2022-10-21T20:43:55.071Z,3.78
2022-10-21T20:46:24.119Z,6.65
2022-10-21T20:48:52.326Z,1.63
2022-10-21T20:51:28.975Z,4.15
2022-10-21T20:54:01.213Z,1.48
2022-10-21T20:56:30.290Z,3.35
2022-10-21T20:58:57.441Z,1.13
2022-10-21T21:01:26.829Z,1.85
2022-10-21T21:03:55.944Z,1.88
2022-10-21T21:06:23.256Z,1.05
2022-10-21T21:09:14.653Z,1.75
2022-10-21T21:11:37.141Z,5.47
2022-10-21T21:14:03.915Z,1.33
2022-10-21T21:16:30.909Z,1.05
2022-10-21T21:19:03.413Z,2.08
2022-10-21T21:21:32.104Z,1.45
2022-10-21T21:23:59.095Z,3.90
2022-10-21T21:26:28.389Z,1.25
2022-10-21T21:28:55.653Z,2.58
2022-10-21T21:31:24.803Z,1.60
2022-10-21T21:33:51.730Z,0.90
2022-10-21T21:36:20.299Z,2.95
2022-10-21T21:38:48.085Z,2.55
2022-10-21T21:41:16.633Z,1.88
2022-10-21T21:43:48.653Z,1.77
2022-10-21T21:46:22.726Z,0.95
2022-10-21T21:49:03.879Z,3.95
2022-10-21T21:51:33.937Z,1.88
2022-10-21T21:54:00.677Z,4.13
2022-10-21T21:56:28.138Z,1.65
2022-10-21T21:58:57.600Z,3.17
2022-10-21T22:01:27.726Z,1.77
2022-10-21T22:03:55.452Z,2.00
2022-10-21T22:08:56.349Z,0.70
2022-10-21T22:11:25.465Z,1.08
2022-10-21T22:13:52.785Z,4.70
2022-10-21T22:16:24.378Z,2.20
2022-10-21T22:18:51.385Z,2.55
2022-10-21T22:21:18.657Z,2.67
2022-10-21T22:23:46.541Z,2.35
2022-10-21T22:26:14.233Z,3.95
2022-10-21T22:28:41.910Z,3.92
2022-10-21T22:31:11.646Z,1.40
2022-10-21T22:33:38.851Z,2.05
2022-10-21T22:36:06.216Z,3.38
2022-10-21T22:38:33.075Z,0.95
2022-10-21T22:41:02.192Z,4.40
2022-10-21T22:43:29.776Z,2.10
2022-10-21T22:46:05.359Z,1.55
2022-10-21T22:48:42.195Z,3.03
2022-10-21T22:51:08.916Z,0.57
2022-10-21T22:53:36.541Z,2.78
2022-10-21T22:56:03.509Z,3.20
2022-10-21T22:58:30.255Z,1.23
2022-10-21T23:00:57.375Z,2.83
2022-10-21T23:03:24.517Z,5.50
2022-10-21T23:05:51.399Z,3.97
2022-10-21T23:08:18.652Z,2.25
2022-10-21T23:10:48.738Z,3.75
2022-10-21T23:13:15.577Z,1.70
2022-10-21T23:15:42.393Z,2.55
2022-10-21T23:18:09.288Z,4.50
2022-10-21T23:20:36.682Z,4.53
2022-10-21T23:23:04.287Z,3.58
2022-10-21T23:25:31.022Z,3.40
2022-10-21T23:27:57.746Z,2.20
2022-10-21T23:30:24.856Z,2.05
2022-10-21T23:32:51.803Z,3.20
2022-10-21T23:35:19.518Z,2.72
2022-10-21T23:37:46.422Z,2.50
2022-10-21T23:40:13.140Z,3.05
2022-10-21T23:42:42.793Z,1.30
2022-10-21T23:45:11.332Z,1.60
2022-10-21T23:47:39.667Z,1.95
2022-10-21T23:50:08.300Z,1.77
2022-10-21T23:52:35.641Z,0.82
2022-10-21T23:55:02.354Z,0.60
2022-10-21T23:57:29.149Z,1.65
2022-10-21T23:59:55.847Z,0.38
